Time;durP1;ratioP1;P1;durP2;ratioP2;P2;SDS_P1;SDS_P2;PMS_P1;PMS_P2;Temp;Humidity;BMP_temperature;BMP_pressure;BME280_temperature;BME280_humidity;BME280_pressure;Samples;Min_cycle;Max_cycle;Signal;HPM_P1;HPM_P2
2022/08/14 00:01:49;;;;;;;5.93;3.20;;;;;;;;;;4968626;28;20484;-62
2022/08/14 00:04:14;;;;;;;6.63;3.53;;;;;;;;;;4968576;28;20368;-62
2022/08/14 00:06:39;;;;;;;5.68;3.13;;;;;;;;;;4968445;28;20068;-62
2022/08/14 00:09:05;;;;;;;3.88;2.97;;;;;;;;;;4968420;28;20415;-62
2022/08/14 00:11:30;;;;;;;4.05;3.08;;;;;;;;;;4968077;28;20436;-62
2022/08/14 00:13:56;;;;;;;5.82;3.38;;;;;;;;;;4968264;28;20051;-62
2022/08/14 00:16:21;;;;;;;4.78;2.95;;;;;;;;;;4968134;28;20029;-63
2022/08/14 00:18:46;;;;;;;4.47;3.03;;;;;;;;;;4969502;28;20416;-63
2022/08/14 00:21:12;;;;;;;5.63;3.55;;;;;;;;;;4969278;28;20444;-62
2022/08/14 00:23:38;;;;;;;4.30;3.28;;;;;;;;;;4968784;28;20052;-63
2022/08/14 00:26:04;;;;;;;3.55;2.97;;;;;;;;;;4968020;28;20349;-63
2022/08/14 00:28:29;;;;;;;5.18;3.53;;;;;;;;;;4969444;28;20360;-62
2022/08/14 00:30:57;;;;;;;4.28;3.35;;;;;;;;;;4967569;28;20443;-63
2022/08/14 00:33:24;;;;;;;4.63;3.55;;;;;;;;;;4968209;28;20519;-63
2022/08/14 00:35:49;;;;;;;6.53;3.30;;;;;;;;;;4967827;28;20065;-62
2022/08/14 00:38:17;;;;;;;3.92;3.22;;;;;;;;;;4968055;28;20570;-63
2022/08/14 00:40:42;;;;;;;4.97;3.17;;;;;;;;;;4969837;28;20440;-63
2022/08/14 00:43:08;;;;;;;3.00;2.70;;;;;;;;;;4968376;28;20397;-63
2022/08/14 00:45:34;;;;;;;5.00;3.15;;;;;;;;;;4968171;28;20435;-63
2022/08/14 00:48:00;;;;;;;4.10;3.05;;;;;;;;;;4968048;28;20060;-63
2022/08/14 00:50:29;;;;;;;3.78;3.00;;;;;;;;;;4968065;28;20675;-62
2022/08/14 00:52:56;;;;;;;5.53;3.40;;;;;;;;;;4968048;28;20364;-62
2022/08/14 00:55:21;;;;;;;3.35;2.88;;;;;;;;;;4967957;28;20513;-64
2022/08/14 01:00:33;;;;;;;3.70;2.80;;;;;;;;;;4971541;28;20348;-65
2022/08/14 01:02:59;;;;;;;4.72;3.13;;;;;;;;;;4966091;28;20085;-63
2022/08/14 01:05:25;;;;;;;4.22;2.95;;;;;;;;;;4952590;28;20146;-63
2022/08/14 01:07:53;;;;;;;4.22;3.20;;;;;;;;;;4954186;28;20373;-64
2022/08/14 01:10:19;;;;;;;4.07;3.10;;;;;;;;;;4952027;28;20042;-63
2022/08/14 01:12:47;;;;;;;4.30;3.15;;;;;;;;;;4952150;28;20567;-63
2022/08/14 01:15:13;;;;;;;4.22;3.17;;;;;;;;;;4952427;28;20437;-63
2022/08/14 01:23:13;;;;;;;4.78;3.15;;;;;;;;;;4951451;28;20423;-63
2022/08/14 01:25:38;;;;;;;5.18;3.35;;;;;;;;;;4953332;28;20344;-62
2022/08/14 01:28:03;;;;;;;4.53;2.92;;;;;;;;;;4951791;28;20342;-63
2022/08/14 01:30:31;;;;;;;4.53;3.15;;;;;;;;;;4951456;28;20480;-63
2022/08/14 01:32:56;;;;;;;5.80;3.25;;;;;;;;;;4952104;28;20424;-63
2022/08/14 01:35:22;;;;;;;6.13;3.05;;;;;;;;;;4951544;28;20436;-62
2022/08/14 01:37:48;;;;;;;3.67;3.10;;;;;;;;;;4952779;28;20425;-63
2022/08/14 01:40:14;;;;;;;5.07;3.90;;;;;;;;;;4951544;28;20421;-63
2022/08/14 01:42:43;;;;;;;3.72;3.03;;;;;;;;;;4951402;28;20034;-62
2022/08/14 01:45:11;;;;;;;4.68;3.35;;;;;;;;;;4954059;28;20425;-64
2022/08/14 01:47:37;;;;;;;3.40;2.95;;;;;;;;;;4951340;28;20169;-63
2022/08/14 01:50:05;;;;;;;5.97;3.25;;;;;;;;;;4951479;28;20063;-63
2022/08/14 01:52:33;;;;;;;4.25;2.88;;;;;;;;;;4952950;28;20495;-63
2022/08/14 01:55:00;;;;;;;4.90;2.85;;;;;;;;;;4952268;28;20038;-63
2022/08/14 01:57:25;;;;;;;3.97;3.10;;;;;;;;;;4951776;28;20476;-62
2022/08/14 01:59:55;;;;;;;4.70;3.55;;;;;;;;;;4950062;28;20448;-63
2022/08/14 02:02:21;;;;;;;5.60;3.60;;;;;;;;;;4951872;28;20409;-63
2022/08/14 02:04:47;;;;;;;5.97;3.60;;;;;;;;;;4951337;28;20532;-63
2022/08/14 02:07:12;;;;;;;5.20;3.40;;;;;;;;;;4951018;28;20432;-63
2022/08/14 02:09:38;;;;;;;6.28;3.53;;;;;;;;;;4950452;28;20100;-63
2022/08/14 02:12:07;;;;;;;4.65;3.42;;;;;;;;;;4952733;28;20109;-63
2022/08/14 02:14:33;;;;;;;5.28;3.65;;;;;;;;;;4950683;28;20149;-62
2022/08/14 02:16:59;;;;;;;3.95;3.15;;;;;;;;;;4952131;28;20443;-62
2022/08/14 02:19:27;;;;;;;4.82;3.60;;;;;;;;;;4950895;28;20508;-63
2022/08/14 02:21:56;;;;;;;4.97;3.70;;;;;;;;;;4950550;28;20369;-63
2022/08/14 02:24:24;;;;;;;4.40;3.30;;;;;;;;;;4950868;28;20455;-63
2022/08/14 02:26:52;;;;;;;5.03;3.72;;;;;;;;;;4951629;28;20058;-62
2022/08/14 02:29:23;;;;;;;5.28;3.33;;;;;;;;;;4950779;28;20513;-63
2022/08/14 02:31:53;;;;;;;5.85;2.90;;;;;;;;;;4950193;28;20373;-62
2022/08/14 02:34:21;;;;;;;5.22;3.75;;;;;;;;;;4950443;28;20326;-63
2022/08/14 02:36:52;;;;;;;4.32;3.53;;;;;;;;;;4950706;28;20340;-63
2022/08/14 02:39:17;;;;;;;4.90;3.08;;;;;;;;;;4951169;28;20340;-63
2022/08/14 02:41:43;;;;;;;4.93;3.60;;;;;;;;;;4950262;28;20365;-63
2022/08/14 02:44:10;;;;;;;4.70;3.30;;;;;;;;;;4950968;28;20052;-62
2022/08/14 02:46:43;;;;;;;6.53;3.50;;;;;;;;;;4950313;28;20387;-63
2022/08/14 02:49:09;;;;;;;4.45;3.10;;;;;;;;;;4950970;28;20456;-63
2022/08/14 02:51:35;;;;;;;4.35;3.22;;;;;;;;;;4950141;28;20530;-63
2022/08/14 02:54:01;;;;;;;5.40;3.28;;;;;;;;;;4951619;28;20440;-63
2022/08/14 02:56:27;;;;;;;4.97;3.42;;;;;;;;;;4950196;28;20441;-63
2022/08/14 02:58:54;;;;;;;4.60;2.80;;;;;;;;;;4950826;28;20437;-62
2022/08/14 03:01:21;;;;;;;4.55;3.40;;;;;;;;;;4950296;28;20393;-63
2022/08/14 03:03:48;;;;;;;5.35;3.78;;;;;;;;;;4950003;28;20128;-62
2022/08/14 03:06:14;;;;;;;4.25;3.00;;;;;;;;;;4951289;28;20326;-63
2022/08/14 03:08:41;;;;;;;3.55;3.08;;;;;;;;;;4950633;28;20080;-63
2022/08/14 03:11:09;;;;;;;5.85;3.53;;;;;;;;;;4949893;28;20449;-62
2022/08/14 03:13:38;;;;;;;4.78;3.22;;;;;;;;;;4949696;28;20384;-62
2022/08/14 03:16:05;;;;;;;4.90;3.33;;;;;;;;;;4950609;28;20543;-63
2022/08/14 03:18:31;;;;;;;5.30;3.45;;;;;;;;;;4949715;28;20329;-63
2022/08/14 03:21:01;;;;;;;3.95;3.15;;;;;;;;;;4947506;28;20044;-63
2022/08/14 03:23:26;;;;;;;6.03;3.35;;;;;;;;;;4949805;28;20433;-63
2022/08/14 03:25:52;;;;;;;4.28;3.13;;;;;;;;;;4947879;28;20486;-63
2022/08/14 03:28:17;;;;;;;3.70;2.97;;;;;;;;;;4949458;28;20468;-62
2022/08/14 03:30:42;;;;;;;4.55;3.15;;;;;;;;;;4949310;28;20464;-63
2022/08/14 03:33:09;;;;;;;6.15;3.05;;;;;;;;;;4949577;28;20448;-63
2022/08/14 03:35:35;;;;;;;4.68;3.17;;;;;;;;;;4950544;28;20456;-63
2022/08/14 03:38:09;;;;;;;3.75;2.83;;;;;;;;;;4950407;28;20397;-62
2022/08/14 03:40:37;;;;;;;6.10;2.70;;;;;;;;;;4949822;28;20544;-63
2022/08/14 03:43:04;;;;;;;4.78;3.30;;;;;;;;;;4950379;28;20488;-62
2022/08/14 03:45:31;;;;;;;7.55;3.10;;;;;;;;;;4949103;28;20466;-63
2022/08/14 03:47:59;;;;;;;4.00;2.92;;;;;;;;;;4949134;28;20353;-63
2022/08/14 03:50:26;;;;;;;4.00;2.63;;;;;;;;;;4949706;28;20516;-62
2022/08/14 03:52:51;;;;;;;7.75;3.17;;;;;;;;;;4949446;28;20396;-62
2022/08/14 03:55:16;;;;;;;3.78;2.90;;;;;;;;;;4949122;28;20101;-62
2022/08/14 03:57:42;;;;;;;3.78;2.95;;;;;;;;;;4948895;28;20026;-63
2022/08/14 04:00:12;;;;;;;3.78;3.10;;;;;;;;;;4949444;28;20340;-63
2022/08/14 04:02:38;;;;;;;6.13;3.70;;;;;;;;;;4949200;28;20436;-63
2022/08/14 04:05:07;;;;;;;5.07;3.55;;;;;;;;;;4948820;28;20494;-63
2022/08/14 04:07:33;;;;;;;7.78;2.97;;;;;;;;;;4949378;28;20495;-63
2022/08/14 04:09:59;;;;;;;3.78;3.10;;;;;;;;;;4950845;28;20376;-63
2022/08/14 04:12:25;;;;;;;4.68;3.28;;;;;;;;;;4948102;28;20464;-63
2022/08/14 04:14:51;;;;;;;3.65;3.20;;;;;;;;;;4949856;28;20532;-62
2022/08/14 04:17:18;;;;;;;4.85;3.28;;;;;;;;;;4948651;28;20344;-63
2022/08/14 04:19:44;;;;;;;5.55;3.85;;;;;;;;;;4948592;28;20340;-63
2022/08/14 04:22:10;;;;;;;4.43;3.47;;;;;;;;;;4949273;28;20456;-63
2022/08/14 04:24:35;;;;;;;6.10;3.65;;;;;;;;;;4949663;28;20456;-63
2022/08/14 04:27:01;;;;;;;4.40;3.40;;;;;;;;;;4948544;28;20349;-62
2022/08/14 04:29:26;;;;;;;4.82;3.38;;;;;;;;;;4950551;28;20511;-62
2022/08/14 04:31:52;;;;;;;7.50;3.78;;;;;;;;;;4948606;28;20148;-63
2022/08/14 04:34:17;;;;;;;3.38;2.92;;;;;;;;;;4949850;28;20329;-63
2022/08/14 04:44:54;;;;;;;4.93;2.92;;;;;;;;;;4949424;28;20522;-65
2022/08/14 04:50:04;;;;;;;5.60;2.97;;;;;;;;;;4950261;28;20408;-65
2022/08/14 04:52:30;;;;;;;5.30;4.07;;;;;;;;;;4949816;28;20357;-65
2022/08/14 04:54:56;;;;;;;5.45;3.63;;;;;;;;;;4948494;28;20354;-65
2022/08/14 04:57:22;;;;;;;4.63;3.50;;;;;;;;;;4949392;28;20429;-65
2022/08/14 04:59:47;;;;;;;5.68;3.13;;;;;;;;;;4948360;28;20456;-65
2022/08/14 05:02:13;;;;;;;5.95;3.80;;;;;;;;;;4948626;28;20030;-65
2022/08/14 05:04:39;;;;;;;6.72;3.25;;;;;;;;;;4948250;28;20445;-65
2022/08/14 05:07:05;;;;;;;4.47;3.00;;;;;;;;;;4948397;28;20484;-65
2022/08/14 05:09:30;;;;;;;5.95;3.50;;;;;;;;;;4949399;28;20504;-64
2022/08/14 05:11:56;;;;;;;5.20;2.90;;;;;;;;;;4948464;28;20387;-65
2022/08/14 05:14:22;;;;;;;4.95;3.17;;;;;;;;;;4950458;28;20451;-64
2022/08/14 05:16:47;;;;;;;4.35;3.10;;;;;;;;;;4948056;28;20430;-65
2022/08/14 05:19:13;;;;;;;3.78;3.03;;;;;;;;;;4948328;28;20459;-65
2022/08/14 05:21:42;;;;;;;3.65;2.70;;;;;;;;;;4948729;28;20332;-64
2022/08/14 05:24:10;;;;;;;3.33;2.60;;;;;;;;;;4948266;28;20030;-64
2022/08/14 05:26:39;;;;;;;3.22;2.70;;;;;;;;;;4948208;28;20344;-64
2022/08/14 05:29:08;;;;;;;3.97;2.97;;;;;;;;;;4948802;28;20364;-64
2022/08/14 05:31:36;;;;;;;3.40;2.78;;;;;;;;;;4948369;28;20452;-64
2022/08/14 05:34:01;;;;;;;4.83;3.17;;;;;;;;;;4946782;28;20376;-66
2022/08/14 05:36:27;;;;;;;3.65;2.30;;;;;;;;;;4947932;28;20380;-65
2022/08/14 05:38:53;;;;;;;3.78;2.58;;;;;;;;;;4948041;28;20026;-64
2022/08/14 05:41:18;;;;;;;3.67;2.47;;;;;;;;;;4948249;28;20433;-65
2022/08/14 05:43:46;;;;;;;3.70;2.78;;;;;;;;;;4949336;28;20453;-65
2022/08/14 05:46:17;;;;;;;3.90;2.80;;;;;;;;;;4953709;28;20044;-65
2022/08/14 05:48:46;;;;;;;4.13;3.08;;;;;;;;;;4951436;28;20456;-65
2022/08/14 05:51:12;;;;;;;3.15;2.70;;;;;;;;;;4951506;28;20352;-65
2022/08/14 05:53:38;;;;;;;5.15;3.00;;;;;;;;;;4951369;28;20384;-65
2022/08/14 05:56:03;;;;;;;4.55;3.17;;;;;;;;;;4951169;28;20424;-65
2022/08/14 05:58:29;;;;;;;3.45;2.60;;;;;;;;;;4951583;28;20372;-65
2022/08/14 06:00:56;;;;;;;4.05;2.90;;;;;;;;;;4953228;28;20053;-65
2022/08/14 06:03:22;;;;;;;4.05;2.80;;;;;;;;;;4951790;28;20022;-65
2022/08/14 06:05:51;;;;;;;4.20;2.67;;;;;;;;;;4951169;28;20053;-65
2022/08/14 06:08:30;;;;;;;4.45;2.97;;;;;;;;;;4951094;28;20349;-65
2022/08/14 06:11:02;;;;;;;3.78;2.85;;;;;;;;;;4951255;28;20472;-65
2022/08/14 06:13:32;;;;;;;3.30;2.75;;;;;;;;;;4951047;28;20072;-65
2022/08/14 06:15:57;;;;;;;5.32;2.95;;;;;;;;;;4952925;28;20357;-65
2022/08/14 06:18:23;;;;;;;4.85;2.83;;;;;;;;;;4950872;28;20123;-64
2022/08/14 06:20:49;;;;;;;3.90;2.83;;;;;;;;;;4950807;28;20453;-64
2022/08/14 06:23:14;;;;;;;3.90;2.45;;;;;;;;;;4950758;28;20405;-64
2022/08/14 06:25:40;;;;;;;3.42;2.58;;;;;;;;;;4951424;28;20515;-64
2022/08/14 06:28:06;;;;;;;4.80;3.15;;;;;;;;;;4950825;28;20345;-64
2022/08/14 06:30:33;;;;;;;3.92;2.80;;;;;;;;;;4950208;28;20366;-65
2022/08/14 06:32:58;;;;;;;3.10;2.60;;;;;;;;;;4950854;28;20104;-64
2022/08/14 06:35:24;;;;;;;4.80;3.00;;;;;;;;;;4965004;28;20468;-64
2022/08/14 06:37:55;;;;;;;3.97;2.97;;;;;;;;;;4951493;28;20390;-64
2022/08/14 06:40:27;;;;;;;3.63;2.70;;;;;;;;;;4951496;28;20340;-64
2022/08/14 06:42:53;;;;;;;3.08;2.33;;;;;;;;;;4950717;28;20380;-65
2022/08/14 06:45:19;;;;;;;2.85;2.40;;;;;;;;;;4950849;28;20472;-65
2022/08/14 06:47:45;;;;;;;3.28;2.53;;;;;;;;;;4950102;28;20541;-64
2022/08/14 06:50:14;;;;;;;3.70;2.95;;;;;;;;;;4950510;28;20468;-64
2022/08/14 06:52:40;;;;;;;2.72;2.35;;;;;;;;;;4950793;28;20461;-68
2022/08/14 06:55:06;;;;;;;3.60;2.75;;;;;;;;;;4949913;28;20475;-64
2022/08/14 06:57:37;;;;;;;3.17;2.63;;;;;;;;;;4950260;28;20340;-64
2022/08/14 07:00:07;;;;;;;2.88;2.20;;;;;;;;;;4950150;28;20160;-64
2022/08/14 07:08:01;;;;;;;4.32;2.42;;;;;;;;;;4950814;28;20372;-64
2022/08/14 07:10:26;;;;;;;3.13;2.03;;;;;;;;;;4949900;28;20356;-64
2022/08/14 07:12:52;;;;;;;3.13;2.33;;;;;;;;;;4949756;28;20026;-64
2022/08/14 07:15:18;;;;;;;3.20;2.10;;;;;;;;;;4949617;28;20365;-64
2022/08/14 07:17:47;;;;;;;3.10;2.53;;;;;;;;;;4950363;28;20345;-64
2022/08/14 07:20:13;;;;;;;2.15;1.80;;;;;;;;;;4949856;28;20490;-64
2022/08/14 07:22:38;;;;;;;2.38;1.88;;;;;;;;;;4950383;28;20368;-64
2022/08/14 07:25:04;;;;;;;3.08;2.22;;;;;;;;;;4950461;28;20463;-64
2022/08/14 07:27:30;;;;;;;4.20;2.80;;;;;;;;;;4954583;28;20461;-64
2022/08/14 07:29:55;;;;;;;4.00;2.45;;;;;;;;;;4949120;28;20380;-64
2022/08/14 07:32:21;;;;;;;5.70;3.20;;;;;;;;;;4608206;28;10000644;-64
2022/08/14 07:34:47;;;;;;;5.50;2.95;;;;;;;;;;4951319;28;20461;-64
2022/08/14 07:37:12;;;;;;;4.32;2.60;;;;;;;;;;4949672;28;20037;-64
2022/08/14 07:39:37;;;;;;;5.38;2.88;;;;;;;;;;4950126;28;20026;-64
2022/08/14 07:42:03;;;;;;;5.47;2.78;;;;;;;;;;4949792;28;20033;-64
2022/08/14 07:44:28;;;;;;;5.18;3.08;;;;;;;;;;4949926;28;20329;-64
2022/08/14 07:46:54;;;;;;;4.38;2.65;;;;;;;;;;4949822;28;20079;-64
2022/08/14 07:49:20;;;;;;;4.05;2.80;;;;;;;;;;4949837;28;20026;-64
2022/08/14 07:51:45;;;;;;;3.75;2.42;;;;;;;;;;4949346;28;20560;-64
2022/08/14 07:54:11;;;;;;;4.03;2.53;;;;;;;;;;4949084;28;20044;-64
2022/08/14 07:56:36;;;;;;;5.13;2.70;;;;;;;;;;4949237;28;20033;-65
2022/08/14 07:59:02;;;;;;;6.20;2.60;;;;;;;;;;4949248;28;20034;-64
2022/08/14 08:01:29;;;;;;;4.45;2.55;;;;;;;;;;4948837;28;20433;-64
2022/08/14 08:03:58;;;;;;;4.05;2.15;;;;;;;;;;4948923;28;20467;-64
2022/08/14 08:06:24;;;;;;;5.38;2.45;;;;;;;;;;4948521;28;20318;-64
2022/08/14 08:08:52;;;;;;;3.58;2.42;;;;;;;;;;4948950;28;20467;-64
2022/08/14 08:11:18;;;;;;;4.57;2.97;;;;;;;;;;4947810;28;20380;-63
2022/08/14 08:13:43;;;;;;;4.63;2.55;;;;;;;;;;4947589;28;20456;-64
2022/08/14 08:16:09;;;;;;;5.00;2.50;;;;;;;;;;4947882;28;20444;-65
2022/08/14 08:18:34;;;;;;;3.97;2.70;;;;;;;;;;4947275;28;20467;-63
2022/08/14 08:21:00;;;;;;;3.65;2.20;;;;;;;;;;4948912;28;20448;-64
2022/08/14 08:23:28;;;;;;;3.63;2.33;;;;;;;;;;4949105;28;20353;-63
2022/08/14 08:25:54;;;;;;;3.67;2.30;;;;;;;;;;4949093;28;20449;-64
2022/08/14 08:28:22;;;;;;;4.03;2.25;;;;;;;;;;4948985;28;20349;-64
2022/08/14 08:30:55;;;;;;;3.50;2.35;;;;;;;;;;4948078;28;20508;-66
2022/08/14 08:33:22;;;;;;;4.47;2.80;;;;;;;;;;4948342;28;20425;-64
2022/08/14 08:35:48;;;;;;;3.35;2.35;;;;;;;;;;4948529;28;20516;-64
2022/08/14 08:38:16;;;;;;;4.07;2.58;;;;;;;;;;4948617;28;20511;-65
2022/08/14 08:40:47;;;;;;;2.73;2.10;;;;;;;;;;4949163;28;20429;-65
2022/08/14 08:43:27;;;;;;;5.65;2.83;;;;;;;;;;4948588;28;20718;-66
2022/08/14 08:45:57;;;;;;;4.07;2.40;;;;;;;;;;4948559;28;20026;-65
2022/08/14 08:48:26;;;;;;;3.38;2.42;;;;;;;;;;4949080;28;20460;-65
2022/08/14 08:50:52;;;;;;;4.15;2.60;;;;;;;;;;4949574;28;20053;-65
2022/08/14 08:53:17;;;;;;;4.50;2.45;;;;;;;;;;4948490;28;20437;-65
2022/08/14 08:55:44;;;;;;;5.20;2.60;;;;;;;;;;4948996;28;20417;-65
2022/08/14 08:58:16;;;;;;;3.95;2.35;;;;;;;;;;4948251;28;20457;-65
2022/08/14 09:00:45;;;;;;;3.30;2.17;;;;;;;;;;4949236;28;20464;-65
2022/08/14 09:03:16;;;;;;;2.90;2.05;;;;;;;;;;4948238;28;20429;-65
2022/08/14 09:06:04;;;;;;;3.60;2.30;;;;;;;;;;4948587;28;20026;-65
2022/08/14 09:08:34;;;;;;;3.53;2.50;;;;;;;;;;4947232;28;20475;-65
2022/08/14 09:11:05;;;;;;;3.15;2.08;;;;;;;;;;4949768;28;20360;-64
2022/08/14 09:13:31;;;;;;;3.25;2.20;;;;;;;;;;4948252;28;20436;-64
2022/08/14 09:15:58;;;;;;;4.05;2.22;;;;;;;;;;4948766;28;20444;-65
2022/08/14 09:18:26;;;;;;;3.90;2.33;;;;;;;;;;4949342;28;20527;-64
2022/08/14 09:20:53;;;;;;;2.92;2.20;;;;;;;;;;4951910;28;20392;-64
2022/08/14 09:23:19;;;;;;;5.97;2.47;;;;;;;;;;4951812;28;20092;-66
2022/08/14 09:25:48;;;;;;;3.13;2.30;;;;;;;;;;4951950;28;20448;-64
2022/08/14 09:28:14;;;;;;;;;;;;;;;;;;4952896;28;20503;-64
2022/08/14 09:30:43;;;;;;;3.05;2.10;;;;;;;;;;4952290;28;20328;-65
2022/08/14 09:33:30;;;;;;;2.95;1.90;;;;;;;;;;4953614;28;20444;-64
2022/08/14 09:36:26;;;;;;;4.28;2.30;;;;;;;;;;4952333;28;20344;-65
2022/08/14 09:39:08;;;;;;;3.83;1.83;;;;;;;;;;4952576;28;20449;-64
2022/08/14 09:42:07;;;;;;;2.53;1.73;;;;;;;;;;4950304;28;20397;-65
2022/08/14 09:44:56;;;;;;;3.20;2.10;;;;;;;;;;4949924;28;20291;-64
2022/08/14 09:47:38;;;;;;;;;;;;;;;;;;4952551;28;20375;-64
2022/08/14 09:50:24;;;;;;;3.45;2.17;;;;;;;;;;4951743;28;20012;-64
2022/08/14 09:52:53;;;;;;;2.90;2.00;;;;;;;;;;4953703;28;20247;-64
2022/08/14 09:55:20;;;;;;;3.25;2.20;;;;;;;;;;4951522;28;20552;-64
2022/08/14 09:57:46;;;;;;;2.42;1.90;;;;;;;;;;4951242;28;20398;-64
2022/08/14 10:00:17;;;;;;;3.20;2.05;;;;;;;;;;4950135;28;20437;-63
2022/08/14 10:02:55;;;;;;;2.83;1.92;;;;;;;;;;4951148;28;20428;-64
2022/08/14 10:05:32;;;;;;;4.97;2.20;;;;;;;;;;4951332;28;20465;-64
2022/08/14 10:07:59;;;;;;;3.35;2.30;;;;;;;;;;4951193;28;20026;-64
2022/08/14 10:10:37;;;;;;;4.85;2.10;;;;;;;;;;4951066;28;20448;-63
2022/08/14 10:13:04;;;;;;;2.43;1.90;;;;;;;;;;4951418;28;20104;-63
2022/08/14 10:15:31;;;;;;;2.38;1.70;;;;;;;;;;4951277;28;20062;-63
2022/08/14 10:18:08;;;;;;;2.70;2.00;;;;;;;;;;4951102;28;20424;-63
2022/08/14 10:20:40;;;;;;;5.25;2.00;;;;;;;;;;4951518;28;20321;-63
2022/08/14 10:23:19;;;;;;;2.40;1.77;;;;;;;;;;4950967;28;20488;-63
2022/08/14 10:25:50;;;;;;;4.40;2.20;;;;;;;;;;4952112;28;20302;-63
2022/08/14 10:28:19;;;;;;;4.60;2.00;;;;;;;;;;4950695;28;20345;-63
2022/08/14 10:30:47;;;;;;;3.88;1.90;;;;;;;;;;4950971;28;20449;-63
2022/08/14 10:33:42;;;;;;;3.22;1.90;;;;;;;;;;4951091;28;20440;-63
2022/08/14 10:36:08;;;;;;;2.28;1.95;;;;;;;;;;4949951;28;20092;-63
2022/08/14 10:38:34;;;;;;;2.25;1.67;;;;;;;;;;4950647;28;20460;-63
2022/08/14 10:41:15;;;;;;;4.40;2.22;;;;;;;;;;4951349;28;20429;-63
2022/08/14 10:43:42;;;;;;;3.22;2.33;;;;;;;;;;4950580;28;20444;-63
2022/08/14 10:46:16;;;;;;;2.30;2.10;;;;;;;;;;4950499;28;20353;-62
2022/08/14 10:48:55;;;;;;;2.15;1.67;;;;;;;;;;4950456;28;20065;-63
2022/08/14 10:51:28;;;;;;;4.15;2.00;;;;;;;;;;4950573;28;20038;-63
2022/08/14 10:53:54;;;;;;;2.25;1.70;;;;;;;;;;4951165;28;20429;-62
2022/08/14 10:56:29;;;;;;;3.28;1.70;;;;;;;;;;4950010;28;20495;-63
2022/08/14 10:59:00;;;;;;;2.63;1.85;;;;;;;;;;4950277;28;20547;-62
2022/08/14 11:01:30;;;;;;;2.78;2.13;;;;;;;;;;4950636;28;20428;-63
2022/08/14 11:03:56;;;;;;;3.53;1.70;;;;;;;;;;4950255;28;20376;-62
2022/08/14 11:06:22;;;;;;;2.10;1.60;;;;;;;;;;4948670;28;20479;-62
2022/08/14 11:08:48;;;;;;;2.80;1.65;;;;;;;;;;4949912;28;20464;-62
2022/08/14 11:11:16;;;;;;;2.95;1.95;;;;;;;;;;4950014;28;20437;-62
2022/08/14 11:13:45;;;;;;;2.75;1.83;;;;;;;;;;4949324;28;20606;-63
2022/08/14 11:16:14;;;;;;;3.53;1.73;;;;;;;;;;4951456;28;20464;-63
2022/08/14 11:18:43;;;;;;;2.03;1.60;;;;;;;;;;4949954;28;20519;-63
2022/08/14 11:21:13;;;;;;;2.25;1.60;;;;;;;;;;4949770;28;20388;-63
2022/08/14 11:23:39;;;;;;;1.88;1.65;;;;;;;;;;4949703;28;20487;-62
2022/08/14 11:26:06;;;;;;;3.20;1.58;;;;;;;;;;4949769;28;20595;-63
2022/08/14 11:28:34;;;;;;;2.05;1.58;;;;;;;;;;4950883;28;20367;-63
2022/08/14 11:31:02;;;;;;;1.95;1.58;;;;;;;;;;4947764;28;20433;-63
2022/08/14 11:33:31;;;;;;;2.42;1.65;;;;;;;;;;4949664;28;20467;-62
2022/08/14 11:36:00;;;;;;;3.38;1.77;;;;;;;;;;4950383;28;20057;-63
2022/08/14 11:38:27;;;;;;;1.63;1.33;;;;;;;;;;4950144;28;20314;-62
2022/08/14 11:40:55;;;;;;;2.50;1.63;;;;;;;;;;4950044;28;20314;-62
2022/08/14 11:43:21;;;;;;;3.00;2.05;;;;;;;;;;4949358;28;20025;-62
2022/08/14 11:45:49;;;;;;;2.42;1.63;;;;;;;;;;4950090;28;20056;-62
2022/08/14 11:48:20;;;;;;;2.67;1.80;;;;;;;;;;4963735;28;20322;-63
2022/08/14 11:50:47;;;;;;;2.05;1.60;;;;;;;;;;4950037;28;20030;-62
2022/08/14 11:53:29;;;;;;;3.15;1.80;;;;;;;;;;4949074;28;20388;-62
2022/08/14 11:55:56;;;;;;;2.15;1.63;;;;;;;;;;4950395;28;20421;-62
2022/08/14 11:58:30;;;;;;;2.33;1.63;;;;;;;;;;4949158;28;20520;-62
2022/08/14 12:01:01;;;;;;;2.28;1.30;;;;;;;;;;4949102;28;20472;-62
2022/08/14 12:03:40;;;;;;;2.75;2.00;;;;;;;;;;4948914;28;20282;-63
2022/08/14 12:06:05;;;;;;;;;;;;;;;;;;4949859;28;20057;-62
2022/08/14 12:08:34;;;;;;;2.50;1.48;;;;;;;;;;4948859;28;19957;-64
2022/08/14 12:11:00;;;;;;;2.13;1.42;;;;;;;;;;4949874;28;20432;-62
2022/08/14 12:13:31;;;;;;;3.53;1.80;;;;;;;;;;4950891;28;20395;-62
2022/08/14 12:16:02;;;;;;;1.88;1.40;;;;;;;;;;4949603;28;20421;-62
2022/08/14 12:18:42;;;;;;;2.90;1.48;;;;;;;;;;4949380;28;20542;-62
2022/08/14 12:21:18;;;;;;;2.65;1.48;;;;;;;;;;4948811;28;20345;-62
2022/08/14 12:23:46;;;;;;;2.65;1.80;;;;;;;;;;4948621;28;20462;-62
2022/08/14 12:26:19;;;;;;;2.30;1.80;;;;;;;;;;4948736;28;20364;-62
2022/08/14 12:28:47;;;;;;;2.03;1.63;;;;;;;;;;4948549;28;20368;-63
2022/08/14 12:31:18;;;;;;;;;;;;;;;;;;4948643;28;20453;-63
2022/08/14 12:33:58;;;;;;;1.33;1.10;;;;;;;;;;4946983;28;19921;-63
2022/08/14 12:36:29;;;;;;;1.63;1.25;;;;;;;;;;4948826;28;20480;-63
2022/08/14 12:38:56;;;;;;;1.92;1.50;;;;;;;;;;4948546;28;20527;-63
2022/08/14 12:41:22;;;;;;;2.47;1.60;;;;;;;;;;4948790;28;20433;-63
2022/08/14 12:43:55;;;;;;;1.80;1.60;;;;;;;;;;4948443;28;20536;-63
2022/08/14 12:46:29;;;;;;;1.73;1.25;;;;;;;;;;4948300;28;20475;-63
2022/08/14 12:48:57;;;;;;;2.95;1.50;;;;;;;;;;4948453;28;20380;-63
2022/08/14 12:51:24;;;;;;;1.90;1.45;;;;;;;;;;4948439;28;20433;-63
2022/08/14 12:53:52;;;;;;;2.47;1.35;;;;;;;;;;4951997;28;20432;-63
2022/08/14 12:56:18;;;;;;;1.95;1.35;;;;;;;;;;4952389;28;20030;-62
2022/08/14 12:58:55;;;;;;;2.92;1.30;;;;;;;;;;4952932;28;20416;-63
2022/08/14 13:01:26;;;;;;;2.08;1.40;;;;;;;;;;4952157;28;20415;-63
2022/08/14 13:04:03;;;;;;;1.98;1.42;;;;;;;;;;4952273;28;20407;-63
2022/08/14 13:06:29;;;;;;;2.27;1.40;;;;;;;;;;4952621;28;20346;-63
2022/08/14 13:08:55;;;;;;;2.00;1.38;;;;;;;;;;4952630;28;20400;-62
2022/08/14 13:11:24;;;;;;;1.75;1.35;;;;;;;;;;4951991;28;20041;-63
2022/08/14 13:13:52;;;;;;;2.03;1.33;;;;;;;;;;4951876;28;20425;-63
2022/08/14 13:16:18;;;;;;;;;;;;;;;;;;4951102;28;20357;-63
2022/08/14 13:18:45;;;;;;;2.38;1.42;;;;;;;;;;4951868;28;20268;-64
2022/08/14 13:21:12;;;;;;;2.13;1.42;;;;;;;;;;4951290;28;20404;-63
2022/08/14 13:23:41;;;;;;;1.92;1.50;;;;;;;;;;4952578;28;20535;-63
2022/08/14 13:26:06;;;;;;;3.22;1.40;;;;;;;;;;4951682;28;20354;-63
2022/08/14 13:28:34;;;;;;;1.95;1.38;;;;;;;;;;4951748;28;20030;-63
2022/08/14 13:31:04;;;;;;;2.05;1.45;;;;;;;;;;4949726;28;20361;-63
2022/08/14 13:33:32;;;;;;;2.30;1.48;;;;;;;;;;4951740;28;20468;-63
2022/08/14 13:35:57;;;;;;;;;;;;;;;;;;4950546;28;20384;-64
2022/08/14 13:38:24;;;;;;;5.15;1.50;;;;;;;;;;4950243;28;20276;-63
2022/08/14 13:40:54;;;;;;;2.60;1.50;;;;;;;;;;4951574;28;20416;-63
2022/08/14 13:43:23;;;;;;;2.28;1.50;;;;;;;;;;4952118;28;20527;-64
2022/08/14 13:45:54;;;;;;;2.90;1.60;;;;;;;;;;4951560;28;20451;-63
2022/08/14 13:48:21;;;;;;;2.60;1.80;;;;;;;;;;4951335;28;20344;-63
2022/08/14 13:50:49;;;;;;;2.30;1.40;;;;;;;;;;4951644;28;20440;-64
2022/08/14 13:53:15;;;;;;;;;;;;;;;;;;4950347;28;20425;-63
2022/08/14 13:55:41;;;;;;;2.53;1.60;;;;;;;;;;4950237;28;20320;-64
2022/08/14 13:58:07;;;;;;;2.65;1.33;;;;;;;;;;4952880;28;20553;-63
2022/08/14 14:00:35;;;;;;;3.33;1.90;;;;;;;;;;4951964;28;20348;-63
2022/08/14 14:03:02;;;;;;;2.45;1.80;;;;;;;;;;4951781;28;20033;-63
2022/08/14 14:05:28;;;;;;;3.28;1.85;;;;;;;;;;4950826;28;20314;-63
2022/08/14 14:07:53;;;;;;;2.17;1.70;;;;;;;;;;4950282;28;20049;-63
2022/08/14 14:10:20;;;;;;;2.35;1.77;;;;;;;;;;4952517;28;20487;-63
2022/08/14 14:12:48;;;;;;;1.85;1.65;;;;;;;;;;4951479;28;20476;-63
2022/08/14 14:15:16;;;;;;;2.27;1.70;;;;;;;;;;4951037;28;20437;-63
2022/08/14 14:17:42;;;;;;;2.83;1.90;;;;;;;;;;4950777;28;20269;-64
2022/08/14 14:20:11;;;;;;;2.42;1.88;;;;;;;;;;4950850;28;20349;-63
2022/08/14 14:22:45;;;;;;;2.85;1.80;;;;;;;;;;4951288;28;20030;-63
2022/08/14 14:25:13;;;;;;;5.80;2.17;;;;;;;;;;4950625;28;20532;-63
2022/08/14 14:27:40;;;;;;;1.95;1.40;;;;;;;;;;4950662;28;20492;-63
2022/08/14 14:30:07;;;;;;;2.85;1.88;;;;;;;;;;4950226;28;20046;-63
2022/08/14 14:32:32;;;;;;;2.60;1.75;;;;;;;;;;4950336;28;20372;-64
2022/08/14 14:35:02;;;;;;;3.13;1.80;;;;;;;;;;4948864;28;20467;-64
2022/08/14 14:37:29;;;;;;;2.60;1.80;;;;;;;;;;4950772;28;20022;-63
2022/08/14 14:39:57;;;;;;;2.10;1.55;;;;;;;;;;4950344;28;20465;-63
2022/08/14 14:42:27;;;;;;;2.63;1.83;;;;;;;;;;4950401;28;20437;-63
2022/08/14 14:44:57;;;;;;;3.92;2.05;;;;;;;;;;4950742;28;20472;-63
2022/08/14 14:47:24;;;;;;;3.20;1.70;;;;;;;;;;4951054;28;20326;-63
2022/08/14 14:49:49;;;;;;;2.85;1.73;;;;;;;;;;4948989;28;20444;-63
2022/08/14 14:52:16;;;;;;;3.13;1.90;;;;;;;;;;4950049;28;20425;-64
2022/08/14 14:54:44;;;;;;;3.20;2.05;;;;;;;;;;4951463;28;20469;-64
2022/08/14 14:57:12;;;;;;;4.47;1.77;;;;;;;;;;4951797;28;20425;-64
2022/08/14 14:59:38;;;;;;;3.50;1.95;;;;;;;;;;4950266;28;20440;-64
2022/08/14 15:02:06;;;;;;;2.67;1.50;;;;;;;;;;4950933;28;20527;-63
2022/08/14 15:04:36;;;;;;;2.22;1.77;;;;;;;;;;4950360;28;20444;-63
2022/08/14 15:07:02;;;;;;;2.63;1.80;;;;;;;;;;4949723;28;20349;-63
2022/08/14 15:09:27;;;;;;;2.22;1.80;;;;;;;;;;4950051;28;20337;-63
2022/08/14 15:11:54;;;;;;;2.38;1.52;;;;;;;;;;4951055;28;20335;-63
2022/08/14 15:14:20;;;;;;;2.67;1.77;;;;;;;;;;4949950;28;20384;-65
2022/08/14 15:16:46;;;;;;;3.13;2.17;;;;;;;;;;4949479;28;20416;-64